Huron Township, Michigan
Current Conditions -  °F | °C
As of 1:53 PM on Sunday 21 Dec 2014 (Local Time) from KDTW Reporting Station
Broken Clouds Broken Clouds  
Wind Chill: 28°   Ceiling: 6000
Heat Index: 35°   Visibility: 9mi
Dew Point: 23°   Wind: 9mph
Humidity: 61%   Direction: 160°SSE
Pressure: 30.25"   Gusts: NA
Location:  42.1166°N, 83.4023°W
Report Text: KDTW 211853Z 16008KT 9SM BKN060 BKN200 02/M05 A3025 RMK AO2 SLP249 T00171050 $
Loading
Personal Weather Stations






























Interactive Weather Map New forecast layout! Learn more

10-Day Weather Forecast

Advertisements
Track Severe Weather on mobile